Kankakee, IL

3:23 PM CST on January 25, 2015 (GMT -0600)
Chicago Lansing | Change Station
CLOSE
Current Station
Airport
Location: Chicago Lansing,
Elevation: 617 ft
Nearby Weather Stations

Elev 617 ft 41.54 °N, 87.53 °W | Updated 8 minutes ago

Snow
Snow
29 °F
Feels Like 16 °F
N
21
Wind Variable Wind from NNE
Gusts 28 mph

Today
High -- | Low -- °F
--% Chance of Precip.
Yesterday
High -- | Low -- °F
Precip. -- in
7:08 AM 4:59 PM
Waxing Crescent, 36% visible
Pressure 29.83 in
Visibility 2.0 miles
Clouds Overcast 1000 ft
Windchill 16 °F
Dew Point 27 °F
Humidity 92%
Rainfall 0.03 in
Snow Depth Not available.
UV 0 out of 12
Pollen .10 out of 12
Air Quality Not available.
Flu Activity Not available.
METAR KIGQ 252115Z AUTO 03018G24KT 2SM -SN OVC010 M02/M03 A2983 RMK AO2 T10161028

More Conditions Fewer Conditions

Pressure 29.83 in
Visibility 2.0 miles
Clouds Overcast 1000 ft
Windchill 16 °F
Dew Point 27 °F
Humidity 92%
Rainfall 0.03 in
Snow Depth Not available.
UV 0 out of 12
Pollen .10 out of 12
Air Quality Not available.
Flu Activity Not available.
METAR KIGQ 252115Z AUTO 03018G24KT 2SM -SN OVC010 M02/M03 A2983 RMK AO2 T10161028

More Conditions Fewer Conditions

10-Day Weather Forecast

Almanac

Astronomy

Jan. 25, 2015 Rise Set
Actual Time
Civil Twilight
Nautical Twilight
Astronomical Twilight
Moon
Length of Visible Light
Length of Day
Tomorrow will be .
, % of the Moon is Illuminated

Today's Extremes

State Highs State Lows

Community

WunderPhotos

Upload Photos

1,790,052 photos uploaded!

WunderBlogs® & News

Nearby

Air Quality

  Air Quality AQ Index Pollutant
Not available.

Snow Depth

Station Depth Elevation

Earthquake Activity

City Distance Mag. Time & Date
Minimum magnitude displayed is 2.5.

Coastal Water Temperatures

Place Temperature

Nearby Weather Stations